sensor_id;sensor_type;location;lat;lon;timestamp;pressure;altitude;pressure_sealevel;temperature;humidity
19600;BME280;9947;57.722;12.012;2023-07-31T00:02:14;99836.00;;;12.74;100.00
19600;BME280;9947;57.722;12.012;2023-07-31T00:04:41;99841.59;;;12.73;100.00
19600;BME280;9947;57.722;12.012;2023-07-31T00:07:10;99841.03;;;12.69;100.00
19600;BME280;9947;57.722;12.012;2023-07-31T00:09:44;99843.53;;;12.62;100.00
19600;BME280;9947;57.722;12.012;2023-07-31T00:12:11;99834.38;;;12.63;100.00
19600;BME280;9947;57.722;12.012;2023-07-31T00:14:39;99831.69;;;12.63;100.00
19600;BME280;9947;57.722;12.012;2023-07-31T00:17:06;99833.59;;;12.53;100.00
19600;BME280;9947;57.722;12.012;2023-07-31T00:19:33;99831.28;;;12.58;100.00
19600;BME280;9947;57.722;12.012;2023-07-31T00:22:03;99835.53;;;12.61;100.00
19600;BME280;9947;57.722;12.012;2023-07-31T00:24:31;99841.50;;;12.64;100.00
19600;BME280;9947;57.722;12.012;2023-07-31T00:27:01;99838.09;;;12.62;100.00
19600;BME280;9947;57.722;12.012;2023-07-31T00:29:33;99835.38;;;12.62;100.00
19600;BME280;9947;57.722;12.012;2023-07-31T00:32:01;99827.72;;;12.58;100.00
19600;BME280;9947;57.722;12.012;2023-07-31T00:34:28;99828.56;;;12.58;100.00
19600;BME280;9947;57.722;12.012;2023-07-31T00:36:55;99826.72;;;12.59;100.00
19600;BME280;9947;57.722;12.012;2023-07-31T00:39:22;99824.84;;;12.59;100.00
19600;BME280;9947;57.722;12.012;2023-07-31T00:41:49;99822.69;;;12.63;100.00
19600;BME280;9947;57.722;12.012;2023-07-31T00:44:22;99825.72;;;12.60;100.00
19600;BME280;9947;57.722;12.012;2023-07-31T00:46:51;99819.97;;;12.63;100.00
19600;BME280;9947;57.722;12.012;2023-07-31T00:49:19;99824.38;;;12.64;100.00
19600;BME280;9947;57.722;12.012;2023-07-31T00:51:47;99819.81;;;12.64;100.00
19600;BME280;9947;57.722;12.012;2023-07-31T00:54:14;99818.81;;;12.65;100.00
19600;BME280;9947;57.722;12.012;2023-07-31T00:56:45;99825.63;;;12.70;100.00
19600;BME280;9947;57.722;12.012;2023-07-31T00:59:14;99814.94;;;12.68;100.00
19600;BME280;9947;57.722;12.012;2023-07-31T01:01:43;99817.81;;;12.66;100.00
19600;BME280;9947;57.722;12.012;2023-07-31T01:04:09;99814.41;;;12.64;100.00
19600;BME280;9947;57.722;12.012;2023-07-31T01:06:44;99815.41;;;12.63;100.00
19600;BME280;9947;57.722;12.012;2023-07-31T01:09:43;99818.44;;;12.60;100.00
19600;BME280;9947;57.722;12.012;2023-07-31T01:12:28;99818.28;;;12.62;100.00
19600;BME280;9947;57.722;12.012;2023-07-31T01:15:04;99825.25;;;12.64;100.00
19600;BME280;9947;57.722;12.012;2023-07-31T01:17:33;99819.66;;;12.66;100.00
19600;BME280;9947;57.722;12.012;2023-07-31T01:20:02;99820.28;;;12.60;100.00
19600;BME280;9947;57.722;12.012;2023-07-31T01:22:43;99811.06;;;12.53;100.00
19600;BME280;9947;57.722;12.012;2023-07-31T01:25:21;99814.81;;;12.42;100.00
19600;BME280;9947;57.722;12.012;2023-07-31T01:27:59;99820.25;;;12.42;100.00
19600;BME280;9947;57.722;12.012;2023-07-31T01:30:33;99807.38;;;12.44;100.00
19600;BME280;9947;57.722;12.012;2023-07-31T01:33:03;99803.28;;;12.40;100.00
19600;BME280;9947;57.722;12.012;2023-07-31T01:35:33;99811.88;;;12.35;100.00
19600;BME280;9947;57.722;12.012;2023-07-31T01:38:01;99805.06;;;12.31;100.00
19600;BME280;9947;57.722;12.012;2023-07-31T01:40:29;99806.38;;;12.27;100.00
19600;BME280;9947;57.722;12.012;2023-07-31T01:42:59;99800.94;;;12.27;100.00
19600;BME280;9947;57.722;12.012;2023-07-31T01:45:26;99800.41;;;12.24;100.00
19600;BME280;9947;57.722;12.012;2023-07-31T01:47:54;99791.84;;;12.19;100.00
19600;BME280;9947;57.722;12.012;2023-07-31T01:50:23;99790.44;;;12.15;100.00
19600;BME280;9947;57.722;12.012;2023-07-31T01:52:50;99791.59;;;12.12;100.00
19600;BME280;9947;57.722;12.012;2023-07-31T01:55:17;99791.59;;;12.12;100.00
19600;BME280;9947;57.722;12.012;2023-07-31T01:57:44;99792.06;;;12.08;100.00
19600;BME280;9947;57.722;12.012;2023-07-31T02:00:16;99789.34;;;12.08;100.00
19600;BME280;9947;57.722;12.012;2023-07-31T02:02:42;99782.94;;;12.09;100.00
19600;BME280;9947;57.722;12.012;2023-07-31T02:05:10;99793.63;;;12.10;100.00
19600;BME280;9947;57.722;12.012;2023-07-31T02:07:38;99785.63;;;12.09;100.00
19600;BME280;9947;57.722;12.012;2023-07-31T02:10:06;99778.50;;;12.08;100.00
19600;BME280;9947;57.722;12.012;2023-07-31T02:12:33;99774.81;;;12.09;100.00
19600;BME280;9947;57.722;12.012;2023-07-31T02:15:04;99772.09;;;12.09;100.00
19600;BME280;9947;57.722;12.012;2023-07-31T02:20:53;99778.91;;;12.13;100.00
19600;BME280;9947;57.722;12.012;2023-07-31T02:23:22;99778.91;;;12.13;100.00
19600;BME280;9947;57.722;12.012;2023-07-31T02:26:16;99781.63;;;12.13;100.00
19600;BME280;9947;57.722;12.012;2023-07-31T02:29:02;99777.91;;;12.14;100.00
19600;BME280;9947;57.722;12.012;2023-07-31T02:31:30;99786.19;;;12.12;100.00
19600;BME280;9947;57.722;12.012;2023-07-31T02:34:02;99789.03;;;12.11;100.00
19600;BME280;9947;57.722;12.012;2023-07-31T02:36:30;99780.69;;;12.04;100.00
19600;BME280;9947;57.722;12.012;2023-07-31T02:38:57;99793.97;;;11.97;100.00
19600;BME280;9947;57.722;12.012;2023-07-31T02:41:24;99790.13;;;11.90;100.00
19600;BME280;9947;57.722;12.012;2023-07-31T02:43:54;99789.59;;;11.87;100.00
19600;BME280;9947;57.722;12.012;2023-07-31T02:46:24;99782.75;;;11.83;100.00
19600;BME280;9947;57.722;12.012;2023-07-31T02:48:54;99779.34;;;11.81;100.00
19600;BME280;9947;57.722;12.012;2023-07-31T02:51:24;99781.91;;;11.82;100.00
19600;BME280;9947;57.722;12.012;2023-07-31T02:53:56;99782.59;;;11.84;100.00
19600;BME280;9947;57.722;12.012;2023-07-31T02:56:25;99771.78;;;11.84;100.00
19600;BME280;9947;57.722;12.012;2023-07-31T02:58:53;99780.44;;;11.88;100.00
19600;BME280;9947;57.722;12.012;2023-07-31T03:03:49;99779.16;;;11.92;100.00
19600;BME280;9947;57.722;12.012;2023-07-31T03:06:20;99777.72;;;11.97;100.00
19600;BME280;9947;57.722;12.012;2023-07-31T03:08:48;99789.09;;;12.01;100.00
19600;BME280;9947;57.722;12.012;2023-07-31T03:11:20;99778.28;;;12.01;100.00
19600;BME280;9947;57.722;12.012;2023-07-31T03:13:48;99786.25;;;12.02;100.00
19600;BME280;9947;57.722;12.012;2023-07-31T03:16:17;99787.50;;;12.08;100.00
19600;BME280;9947;57.722;12.012;2023-07-31T03:18:47;99784.78;;;12.08;100.00
19600;BME280;9947;57.722;12.012;2023-07-31T03:21:14;99787.88;;;12.13;100.00
19600;BME280;9947;57.722;12.012;2023-07-31T03:23:44;99786.72;;;12.16;100.00
19600;BME280;9947;57.722;12.012;2023-07-31T03:26:13;99790.13;;;12.18;100.00
19600;BME280;9947;57.722;12.012;2023-07-31T03:28:42;99784.72;;;12.18;100.00
19600;BME280;9947;57.722;12.012;2023-07-31T03:31:15;99781.81;;;12.29;100.00
19600;BME280;9947;57.722;12.012;2023-07-31T03:33:46;99777.94;;;12.31;100.00
19600;BME280;9947;57.722;12.012;2023-07-31T03:36:13;99779.97;;;12.29;100.00
19600;BME280;9947;57.722;12.012;2023-07-31T03:38:41;99773.38;;;12.32;100.00
19600;BME280;9947;57.722;12.012;2023-07-31T03:41:11;99769.38;;;12.36;100.00
19600;BME280;9947;57.722;12.012;2023-07-31T03:43:45;99770.38;;;12.35;100.00
19600;BME280;9947;57.722;12.012;2023-07-31T03:46:14;99776.78;;;12.34;100.00
19600;BME280;9947;57.722;12.012;2023-07-31T03:48:43;99767.66;;;12.35;100.00
19600;BME280;9947;57.722;12.012;2023-07-31T03:51:12;99772.47;;;12.41;100.00
19600;BME280;9947;57.722;12.012;2023-07-31T03:53:41;99773.16;;;12.43;100.00
19600;BME280;9947;57.722;12.012;2023-07-31T03:56:08;99774.56;;;12.47;100.00
19600;BME280;9947;57.722;12.012;2023-07-31T03:58:35;99774.81;;;12.54;100.00
19600;BME280;9947;57.722;12.012;2023-07-31T04:03:30;99767.91;;;12.59;100.00
19600;BME280;9947;57.722;12.012;2023-07-31T04:05:57;99766.59;;;12.63;100.00
19600;BME280;9947;57.722;12.012;2023-07-31T04:08:26;99768.47;;;12.63;100.00
19600;BME280;9947;57.722;12.012;2023-07-31T04:10:53;99766.97;;;12.69;100.00
19600;BME280;9947;57.722;12.012;2023-07-31T04:13:22;99767.84;;;12.69;100.00
19600;BME280;9947;57.722;12.012;2023-07-31T04:15:53;99766.13;;;12.68;100.00
19600;BME280;9947;57.722;12.012;2023-07-31T04:18:20;99774.66;;;12.73;100.00
19600;BME280;9947;57.722;12.012;2023-07-31T04:20:49;99769.47;;;12.80;100.00
19600;BME280;9947;57.722;12.012;2023-07-31T04:23:16;99771.19;;;12.81;100.00
19600;BME280;9947;57.722;12.012;2023-07-31T04:25:44;99770.34;;;12.80;100.00
19600;BME280;9947;57.722;12.012;2023-07-31T04:28:11;99766.94;;;12.78;100.00
19600;BME280;9947;57.722;12.012;2023-07-31T04:30:41;99759.53;;;12.71;100.00
19600;BME280;9947;57.722;12.012;2023-07-31T04:33:08;99764.13;;;12.70;100.00
19600;BME280;9947;57.722;12.012;2023-07-31T04:35:35;99761.72;;;12.67;100.00
19600;BME280;9947;57.722;12.012;2023-07-31T04:40:32;99760.09;;;12.74;100.00
19600;BME280;9947;57.722;12.012;2023-07-31T04:43:02;99756.84;;;12.71;100.00
19600;BME280;9947;57.722;12.012;2023-07-31T04:45:29;99754.22;;;12.79;100.00
19600;BME280;9947;57.722;12.012;2023-07-31T04:47:59;99739.25;;;12.75;100.00
19600;BME280;9947;57.722;12.012;2023-07-31T04:50:26;99749.81;;;12.78;100.00
19600;BME280;9947;57.722;12.012;2023-07-31T04:52:54;99748.22;;;12.93;100.00
19600;BME280;9947;57.722;12.012;2023-07-31T04:55:21;99748.75;;;12.96;100.00
19600;BME280;9947;57.722;12.012;2023-07-31T04:57:51;99754.34;;;12.95;100.00
19600;BME280;9947;57.722;12.012;2023-07-31T05:00:18;99752.25;;;13.07;100.00
19600;BME280;9947;57.722;12.012;2023-07-31T05:02:47;99750.69;;;13.22;100.00
19600;BME280;9947;57.722;12.012;2023-07-31T05:05:18;99746.88;;;13.33;100.00
19600;BME280;9947;57.722;12.012;2023-07-31T05:07:46;99747.59;;;13.69;100.00
19600;BME280;9947;57.722;12.012;2023-07-31T05:10:13;99736.72;;;14.03;100.00
19600;BME280;9947;57.722;12.012;2023-07-31T05:12:40;99730.97;;;14.64;100.00
19600;BME280;9947;57.722;12.012;2023-07-31T05:15:12;99714.91;;;15.51;100.00
19600;BME280;9947;57.722;12.012;2023-07-31T05:17:38;99694.66;;;16.85;100.00
19600;BME280;9947;57.722;12.012;2023-07-31T05:20:06;99689.34;;;16.92;100.00
19600;BME280;9947;57.722;12.012;2023-07-31T05:22:34;99686.06;;;16.20;100.00
19600;BME280;9947;57.722;12.012;2023-07-31T05:27:27;99687.38;;;15.37;100.00
19600;BME280;9947;57.722;12.012;2023-07-31T05:29:54;99692.00;;;15.04;100.00
19600;BME280;9947;57.722;12.012;2023-07-31T05:32:28;99682.50;;;15.00;100.00
19600;BME280;9947;57.722;12.012;2023-07-31T05:34:56;99684.22;;;14.93;100.00
19600;BME280;9947;57.722;12.012;2023-07-31T05:37:23;99684.03;;;14.95;100.00
19600;BME280;9947;57.722;12.012;2023-07-31T05:39:53;99681.34;;;15.75;100.00
19600;BME280;9947;57.722;12.012;2023-07-31T05:42:41;99678.56;;;15.83;100.00
19600;BME280;9947;57.722;12.012;2023-07-31T05:45:09;99684.09;;;15.58;100.00
19600;BME280;9947;57.722;12.012;2023-07-31T05:47:40;99684.00;;;15.35;100.00
19600;BME280;9947;57.722;12.012;2023-07-31T05:52:32;99668.22;;;16.09;100.00
19600;BME280;9947;57.722;12.012;2023-07-31T05:57:24;99665.25;;;18.49;100.00
19600;BME280;9947;57.722;12.012;2023-07-31T05:59:51;99677.47;;;19.46;100.00
19600;BME280;9947;57.722;12.012;2023-07-31T06:02:18;99673.56;;;19.55;100.00
19600;BME280;9947;57.722;12.012;2023-07-31T06:04:47;99671.50;;;20.72;100.00
19600;BME280;9947;57.722;12.012;2023-07-31T06:07:16;99666.25;;;20.10;100.00
19600;BME280;9947;57.722;12.012;2023-07-31T06:09:45;99670.09;;;20.28;100.00
19600;BME280;9947;57.722;12.012;2023-07-31T06:12:14;99671.88;;;18.76;100.00
19600;BME280;9947;57.722;12.012;2023-07-31T06:14:45;99673.56;;;18.41;100.00
19600;BME280;9947;57.722;12.012;2023-07-31T06:17:13;99682.09;;;17.81;100.00
19600;BME280;9947;57.722;12.012;2023-07-31T06:19:40;99682.94;;;17.52;100.00
19600;BME280;9947;57.722;12.012;2023-07-31T06:22:09;99677.81;;;17.34;100.00
19600;BME280;9947;57.722;12.012;2023-07-31T06:24:36;99679.88;;;16.80;100.00
19600;BME280;9947;57.722;12.012;2023-07-31T06:29:29;99675.81;;;16.22;100.00
19600;BME280;9947;57.722;12.012;2023-07-31T06:31:56;99674.66;;;16.39;100.00
19600;BME280;9947;57.722;12.012;2023-07-31T06:34:24;99668.97;;;16.26;100.00
19600;BME280;9947;57.722;12.012;2023-07-31T06:36:51;99662.50;;;15.96;100.00
19600;BME280;9947;57.722;12.012;2023-07-31T06:39:22;99665.47;;;16.17;100.00
19600;BME280;9947;57.722;12.012;2023-07-31T06:41:49;99660.69;;;15.88;100.00
19600;BME280;9947;57.722;12.012;2023-07-31T06:44:15;99660.13;;;15.62;100.00
19600;BME280;9947;57.722;12.012;2023-07-31T06:46:43;99662.13;;;15.60;100.00
19600;BME280;9947;57.722;12.012;2023-07-31T06:49:10;99674.28;;;15.41;100.00
19600;BME280;9947;57.722;12.012;2023-07-31T06:51:37;99669.50;;;15.35;100.00
19600;BME280;9947;57.722;12.012;2023-07-31T06:56:32;99672.09;;;15.20;100.00
19600;BME280;9947;57.722;12.012;2023-07-31T06:59:04;99674.31;;;15.25;100.00
19600;BME280;9947;57.722;12.012;2023-07-31T07:01:31;99676.03;;;15.18;100.00
19600;BME280;9947;57.722;12.012;2023-07-31T07:03:58;99674.66;;;15.05;100.00
19600;BME280;9947;57.722;12.012;2023-07-31T07:06:26;99676.41;;;14.90;100.00
19600;BME280;9947;57.722;12.012;2023-07-31T07:08:53;99679.28;;;14.72;100.00
19600;BME280;9947;57.722;12.012;2023-07-31T07:11:20;99678.28;;;14.65;100.00
19600;BME280;9947;57.722;12.012;2023-07-31T07:13:49;99671.44;;;14.45;100.00
19600;BME280;9947;57.722;12.012;2023-07-31T07:16:16;99680.09;;;14.40;100.00
19600;BME280;9947;57.722;12.012;2023-07-31T07:18:44;99684.50;;;14.33;100.00
19600;BME280;9947;57.722;12.012;2023-07-31T07:21:11;99685.97;;;14.19;100.00
19600;BME280;9947;57.722;12.012;2023-07-31T07:23:41;99683.44;;;14.26;100.00
19600;BME280;9947;57.722;12.012;2023-07-31T07:28:37;99677.66;;;14.29;100.00
19600;BME280;9947;57.722;12.012;2023-07-31T07:31:09;99680.94;;;14.41;100.00
19600;BME280;9947;57.722;12.012;2023-07-31T07:33:37;99679.91;;;14.34;100.00
19600;BME280;9947;57.722;12.012;2023-07-31T07:36:08;99677.19;;;14.34;100.00
19600;BME280;9947;57.722;12.012;2023-07-31T07:38:35;99673.13;;;14.38;100.00
19600;BME280;9947;57.722;12.012;2023-07-31T07:41:02;99673.94;;;14.30;100.00
19600;BME280;9947;57.722;12.012;2023-07-31T07:43:32;99678.00;;;14.26;100.00
19600;BME280;9947;57.722;12.012;2023-07-31T07:48:25;99667.28;;;14.16;100.00
19600;BME280;9947;57.722;12.012;2023-07-31T07:50:53;99676.97;;;14.11;100.00
19600;BME280;9947;57.722;12.012;2023-07-31T07:53:21;99681.72;;;14.09;100.00
19600;BME280;9947;57.722;12.012;2023-07-31T07:55:49;99682.56;;;14.09;100.00
19600;BME280;9947;57.722;12.012;2023-07-31T07:58:16;99681.06;;;14.23;100.00
19600;BME280;9947;57.722;12.012;2023-07-31T08:00:50;99683.25;;;14.19;100.00
19600;BME280;9947;57.722;12.012;2023-07-31T08:03:18;99675.88;;;14.46;100.00
19600;BME280;9947;57.722;12.012;2023-07-31T08:05:47;99668.53;;;14.38;100.00
19600;BME280;9947;57.722;12.012;2023-07-31T08:08:15;99661.75;;;14.50;100.00
19600;BME280;9947;57.722;12.012;2023-07-31T08:10:42;99668.91;;;14.92;100.00
19600;BME280;9947;57.722;12.012;2023-07-31T08:15:41;99667.03;;;14.93;100.00
19600;BME280;9947;57.722;12.012;2023-07-31T08:20:38;99662.78;;;14.90;100.00
19600;BME280;9947;57.722;12.012;2023-07-31T08:25:35;99651.88;;;15.06;100.00
19600;BME280;9947;57.722;12.012;2023-07-31T08:30:32;99658.78;;;15.41;100.00
19600;BME280;9947;57.722;12.012;2023-07-31T08:35:25;99652.03;;;15.05;100.00
19600;BME280;9947;57.722;12.012;2023-07-31T08:37:54;99649.44;;;15.28;100.00
19600;BME280;9947;57.722;12.012;2023-07-31T08:40:22;99646.00;;;15.34;100.00
19600;BME280;9947;57.722;12.012;2023-07-31T08:42:55;99642.81;;;15.22;100.00
19600;BME280;9947;57.722;12.012;2023-07-31T08:45:28;99637.94;;;15.09;100.00
19600;BME280;9947;57.722;12.012;2023-07-31T08:47:56;99647.78;;;15.19;100.00
19600;BME280;9947;57.722;12.012;2023-07-31T08:52:51;99639.47;;;15.12;100.00
19600;BME280;9947;57.722;12.012;2023-07-31T08:55:20;99639.25;;;15.22;100.00
19600;BME280;9947;57.722;12.012;2023-07-31T08:57:52;99638.19;;;15.39;100.00
19600;BME280;9947;57.722;12.012;2023-07-31T09:00:19;99640.25;;;15.37;100.00
19600;BME280;9947;57.722;12.012;2023-07-31T09:02:55;99635.78;;;15.44;100.00
19600;BME280;9947;57.722;12.012;2023-07-31T09:05:26;99638.88;;;15.33;100.00
19600;BME280;9947;57.722;12.012;2023-07-31T09:07:54;99638.66;;;15.59;100.00
19600;BME280;9947;57.722;12.012;2023-07-31T09:10:22;99629.69;;;15.34;100.00
19600;BME280;9947;57.722;12.012;2023-07-31T09:12:52;99634.44;;;15.32;100.00
19600;BME280;9947;57.722;12.012;2023-07-31T09:15:19;99629.00;;;15.32;100.00
19600;BME280;9947;57.722;12.012;2023-07-31T09:17:48;99634.47;;;15.24;100.00
19600;BME280;9947;57.722;12.012;2023-07-31T09:20:23;99632.63;;;15.08;100.00
19600;BME280;9947;57.722;12.012;2023-07-31T09:22:51;99640.00;;;14.91;100.00
19600;BME280;9947;57.722;12.012;2023-07-31T09:25:23;99628.44;;;14.89;100.00
19600;BME280;9947;57.722;12.012;2023-07-31T09:27:53;99634.53;;;14.83;100.00
19600;BME280;9947;57.722;12.012;2023-07-31T09:30:21;99631.13;;;15.05;100.00
19600;BME280;9947;57.722;12.012;2023-07-31T09:32:49;99633.59;;;15.31;100.00
19600;BME280;9947;57.722;12.012;2023-07-31T09:35:27;99642.78;;;15.38;100.00
19600;BME280;9947;57.722;12.012;2023-07-31T09:37:58;99620.44;;;15.51;100.00
19600;BME280;9947;57.722;12.012;2023-07-31T09:40:26;99624.53;;;15.63;100.00
19600;BME280;9947;57.722;12.012;2023-07-31T09:47:57;99628.81;;;15.41;100.00
19600;BME280;9947;57.722;12.012;2023-07-31T09:50:24;99625.44;;;15.39;100.00
19600;BME280;9947;57.722;12.012;2023-07-31T09:52:53;99626.75;;;15.91;100.00
19600;BME280;9947;57.722;12.012;2023-07-31T09:55:22;99630.31;;;16.45;100.00
19600;BME280;9947;57.722;12.012;2023-07-31T09:57:51;99628.63;;;16.21;100.00
19600;BME280;9947;57.722;12.012;2023-07-31T10:00:19;99624.25;;;16.35;100.00
19600;BME280;9947;57.722;12.012;2023-07-31T10:02:51;99625.75;;;16.69;100.00
19600;BME280;9947;57.722;12.012;2023-07-31T10:05:23;99622.66;;;16.86;100.00
19600;BME280;9947;57.722;12.012;2023-07-31T10:07:54;99620.63;;;17.33;100.00
19600;BME280;9947;57.722;12.012;2023-07-31T10:10:22;99622.16;;;17.20;100.00
19600;BME280;9947;57.722;12.012;2023-07-31T10:12:53;99628.19;;;17.45;100.00
19600;BME280;9947;57.722;12.012;2023-07-31T10:15:20;99623.91;;;16.99;100.00
19600;BME280;9947;57.722;12.012;2023-07-31T10:17:48;99628.44;;;17.06;100.00
19600;BME280;9947;57.722;12.012;2023-07-31T10:20:20;99623.97;;;16.76;100.00
19600;BME280;9947;57.722;12.012;2023-07-31T10:22:50;99624.81;;;16.76;100.00
19600;BME280;9947;57.722;12.012;2023-07-31T10:25:18;99623.88;;;16.84;100.00
19600;BME280;9947;57.722;12.012;2023-07-31T10:27:47;99632.06;;;16.61;100.00
19600;BME280;9947;57.722;12.012;2023-07-31T10:30:17;99629.34;;;16.38;100.00
19600;BME280;9947;57.722;12.012;2023-07-31T10:32:45;99619.63;;;16.67;100.00
19600;BME280;9947;57.722;12.012;2023-07-31T10:35:12;99616.75;;;16.98;100.00
19600;BME280;9947;57.722;12.012;2023-07-31T10:37:42;99618.09;;;17.02;100.00
19600;BME280;9947;57.722;12.012;2023-07-31T10:40:17;99615.06;;;16.97;100.00
19600;BME280;9947;57.722;12.012;2023-07-31T10:42:50;99610.84;;;17.68;100.00
19600;BME280;9947;57.722;12.012;2023-07-31T10:45:26;99598.78;;;18.13;100.00
19600;BME280;9947;57.722;12.012;2023-07-31T10:48:01;99603.47;;;17.83;100.00
19600;BME280;9947;57.722;12.012;2023-07-31T10:50:29;99602.81;;;17.66;100.00
19600;BME280;9947;57.722;12.012;2023-07-31T10:52:59;99600.81;;;17.90;100.00
19600;BME280;9947;57.722;12.012;2023-07-31T10:55:33;99601.97;;;17.66;100.00
19600;BME280;9947;57.722;12.012;2023-07-31T10:58:07;99594.59;;;17.66;100.00
19600;BME280;9947;57.722;12.012;2023-07-31T11:00:37;99595.72;;;18.01;100.00
19600;BME280;9947;57.722;12.012;2023-07-31T11:03:09;99588.41;;;18.08;100.00
19600;BME280;9947;57.722;12.012;2023-07-31T11:05:48;99592.53;;;18.40;100.00
19600;BME280;9947;57.722;12.012;2023-07-31T11:08:17;99578.91;;;18.47;100.00
19600;BME280;9947;57.722;12.012;2023-07-31T11:10:47;99579.38;;;18.29;100.00
19600;BME280;9947;57.722;12.012;2023-07-31T11:13:15;99576.63;;;18.51;100.00
19600;BME280;9947;57.722;12.012;2023-07-31T11:15:42;99579.75;;;18.69;100.00
19600;BME280;9947;57.722;12.012;2023-07-31T11:18:11;99575.50;;;18.88;100.00
19600;BME280;9947;57.722;12.012;2023-07-31T11:20:42;99581.13;;;19.07;100.00
19600;BME280;9947;57.722;12.012;2023-07-31T11:23:12;99581.53;;;18.76;100.00
19600;BME280;9947;57.722;12.012;2023-07-31T11:25:41;99581.53;;;18.55;100.00
19600;BME280;9947;57.722;12.012;2023-07-31T11:28:10;99576.56;;;18.65;100.00
19600;BME280;9947;57.722;12.012;2023-07-31T11:30:38;99582.00;;;17.80;100.00
19600;BME280;9947;57.722;12.012;2023-07-31T11:35:41;99572.72;;;18.17;100.00
19600;BME280;9947;57.722;12.012;2023-07-31T11:38:11;99568.50;;;18.14;100.00
19600;BME280;9947;57.722;12.012;2023-07-31T11:40:42;99568.53;;;18.21;100.00
19600;BME280;9947;57.722;12.012;2023-07-31T11:45:38;99565.94;;;18.77;100.00
19600;BME280;9947;57.722;12.012;2023-07-31T11:50:37;99571.16;;;18.51;100.00
19600;BME280;9947;57.722;12.012;2023-07-31T11:55:29;99567.41;;;19.07;100.00
19600;BME280;9947;57.722;12.012;2023-07-31T11:57:57;99566.84;;;19.19;100.00
19600;BME280;9947;57.722;12.012;2023-07-31T12:00:26;99563.31;;;18.97;100.00
19600;BME280;9947;57.722;12.012;2023-07-31T12:02:55;99563.84;;;19.48;100.00
19600;BME280;9947;57.722;12.012;2023-07-31T12:05:23;99561.50;;;18.55;100.00
19600;BME280;9947;57.722;12.012;2023-07-31T12:07:51;99553.13;;;18.35;100.00
19600;BME280;9947;57.722;12.012;2023-07-31T12:10:28;99554.75;;;18.29;100.00
19600;BME280;9947;57.722;12.012;2023-07-31T12:13:04;99555.25;;;18.61;100.00
19600;BME280;9947;57.722;12.012;2023-07-31T12:15:36;99540.03;;;18.30;100.00
19600;BME280;9947;57.722;12.012;2023-07-31T12:20:35;99545.84;;;18.98;100.00
19600;BME280;9947;57.722;12.012;2023-07-31T12:25:31;99543.97;;;18.98;100.00
19600;BME280;9947;57.722;12.012;2023-07-31T12:28:04;99540.38;;;18.98;100.00
19600;BME280;9947;57.722;12.012;2023-07-31T12:30:33;99539.53;;;18.97;100.00
19600;BME280;9947;57.722;12.012;2023-07-31T12:35:36;99542.22;;;18.91;100.00
19600;BME280;9947;57.722;12.012;2023-07-31T12:40:37;99545.13;;;18.33;100.00
19600;BME280;9947;57.722;12.012;2023-07-31T12:45:31;99542.88;;;17.79;100.00
19600;BME280;9947;57.722;12.012;2023-07-31T12:48:01;99542.88;;;17.79;100.00
19600;BME280;9947;57.722;12.012;2023-07-31T12:50:28;99552.28;;;18.13;100.00
19600;BME280;9947;57.722;12.012;2023-07-31T12:52:57;99539.72;;;17.97;100.00
19600;BME280;9947;57.722;12.012;2023-07-31T12:55:26;99538.19;;;18.16;100.00
19600;BME280;9947;57.722;12.012;2023-07-31T12:57:53;99536.03;;;17.90;100.00
19600;BME280;9947;57.722;12.012;2023-07-31T13:00:20;99534.81;;;17.42;100.00
19600;BME280;9947;57.722;12.012;2023-07-31T13:02:46;99529.53;;;17.91;100.00
19600;BME280;9947;57.722;12.012;2023-07-31T13:05:15;99529.09;;;18.09;100.00
19600;BME280;9947;57.722;12.012;2023-07-31T13:07:43;99530.44;;;18.41;100.00
19600;BME280;9947;57.722;12.012;2023-07-31T13:10:11;99521.94;;;18.57;100.00
19600;BME280;9947;57.722;12.012;2023-07-31T13:12:39;99523.94;;;18.98;100.00
19600;BME280;9947;57.722;12.012;2023-07-31T13:17:32;99522.41;;;19.64;100.00
19600;BME280;9947;57.722;12.012;2023-07-31T13:20:02;99514.25;;;19.36;100.00
19600;BME280;9947;57.722;12.012;2023-07-31T13:22:29;99510.78;;;19.15;100.00
19600;BME280;9947;57.722;12.012;2023-07-31T13:24:57;99517.97;;;18.60;100.00
19600;BME280;9947;57.722;12.012;2023-07-31T13:27:25;99513.38;;;18.39;100.00
19600;BME280;9947;57.722;12.012;2023-07-31T13:29:52;99511.84;;;18.30;100.00
19600;BME280;9947;57.722;12.012;2023-07-31T13:32:20;99510.53;;;17.83;100.00
19600;BME280;9947;57.722;12.012;2023-07-31T13:34:48;99506.31;;;18.02;100.00
19600;BME280;9947;57.722;12.012;2023-07-31T13:37:15;99498.16;;;18.30;100.00
19600;BME280;9947;57.722;12.012;2023-07-31T13:39:43;99491.84;;;18.08;100.00
19600;BME280;9947;57.722;12.012;2023-07-31T13:42:10;99491.66;;;18.59;100.00
19600;BME280;9947;57.722;12.012;2023-07-31T13:44:40;99488.34;;;18.42;100.00
19600;BME280;9947;57.722;12.012;2023-07-31T13:49:34;99492.16;;;18.19;100.00
19600;BME280;9947;57.722;12.012;2023-07-31T13:52:02;99484.44;;;18.23;100.00
19600;BME280;9947;57.722;12.012;2023-07-31T13:54:29;99484.28;;;18.10;100.00
19600;BME280;9947;57.722;12.012;2023-07-31T13:56:58;99484.75;;;17.92;100.00
19600;BME280;9947;57.722;12.012;2023-07-31T13:59:25;99479.09;;;17.57;100.00
19600;BME280;9947;57.722;12.012;2023-07-31T14:01:53;99480.94;;;17.50;100.00
19600;BME280;9947;57.722;12.012;2023-07-31T14:04:22;99483.41;;;17.16;100.00
19600;BME280;9947;57.722;12.012;2023-07-31T14:06:50;99484.97;;;17.18;100.00
19600;BME280;9947;57.722;12.012;2023-07-31T14:09:17;99491.81;;;17.29;100.00
19600;BME280;9947;57.722;12.012;2023-07-31T14:11:44;99485.75;;;17.48;100.00
19600;BME280;9947;57.722;12.012;2023-07-31T14:14:14;99489.34;;;17.34;100.00
19600;BME280;9947;57.722;12.012;2023-07-31T14:16:43;99485.09;;;17.46;100.00